Time;durP1;ratioP1;P1;durP2;ratioP2;P2;SDS_P1;SDS_P2;PMS_P1;PMS_P2;Temp;Humidity;BMP_temperature;BMP_pressure;BME280_temperature;BME280_humidity;BME280_pressure;Samples;Min_cycle;Max_cycle;Signal;HPM_P1;HPM_P2
2023/08/30 00:01:03;;;;;;;6.00;4.60;;;;;;;;;;6219975;23;20008;-91
2023/08/30 00:03:29;;;;;;;7.47;4.80;;;;;;;;;;6219282;23;20006;-90
2023/08/30 00:05:55;;;;;;;5.18;4.63;;;;;;;;;;6221552;23;20004;-90
2023/08/30 00:08:22;;;;;;;7.43;4.05;;;;;;;;;;6221187;23;20001;-89
2023/08/30 00:10:48;;;;;;;6.18;4.72;;;;;;;;;;6219902;23;19996;-90
2023/08/30 00:13:20;;;;;;;7.55;4.28;;;;;;;;;;6254445;22;20004;-90
2023/08/30 00:15:48;;;;;;;6.22;4.60;;;;;;;;;;6276845;22;20008;-91
2023/08/30 00:18:14;;;;;;;7.32;4.90;;;;;;;;;;6278900;22;20075;-91
2023/08/30 00:20:42;;;;;;;7.10;4.93;;;;;;;;;;6276502;22;20007;-90
2023/08/30 00:23:14;;;;;;;5.90;4.45;;;;;;;;;;6275808;22;20003;-91
2023/08/30 00:25:40;;;;;;;7.35;4.85;;;;;;;;;;6276756;22;20008;-90
2023/08/30 00:28:06;;;;;;;7.80;4.97;;;;;;;;;;6276807;22;20004;-91
2023/08/30 00:30:33;;;;;;;7.90;4.68;;;;;;;;;;6276868;22;20078;-90
2023/08/30 00:33:00;;;;;;;7.70;4.93;;;;;;;;;;6276651;22;20007;-90
2023/08/30 00:35:27;;;;;;;6.68;4.97;;;;;;;;;;6276454;22;20008;-91
2023/08/30 00:37:53;;;;;;;7.03;4.88;;;;;;;;;;6251307;22;20016;-90
2023/08/30 00:40:24;;;;;;;6.57;4.18;;;;;;;;;;6278236;22;20075;-91
2023/08/30 00:42:50;;;;;;;5.25;4.53;;;;;;;;;;6276490;22;20703;-92
2023/08/30 00:45:16;;;;;;;7.30;4.80;;;;;;;;;;6276180;22;20421;-89
2023/08/30 00:47:43;;;;;;;5.55;4.30;;;;;;;;;;6275808;22;20008;-89
2023/08/30 00:50:09;;;;;;;6.18;4.97;;;;;;;;;;6276163;22;20077;-89
2023/08/30 00:52:36;;;;;;;7.88;4.68;;;;;;;;;;6276107;22;20010;-88
2023/08/30 00:55:02;;;;;;;7.32;4.72;;;;;;;;;;6276161;22;20032;-89
2023/08/30 00:57:30;;;;;;;6.28;4.75;;;;;;;;;;6276306;22;20000;-89
2023/08/30 00:59:56;;;;;;;6.53;4.60;;;;;;;;;;6276008;22;20337;-89
2023/08/30 01:02:22;;;;;;;7.70;4.47;;;;;;;;;;6276362;22;20477;-89
2023/08/30 01:04:48;;;;;;;5.53;4.65;;;;;;;;;;6276172;22;20003;-89
2023/08/30 01:07:22;;;;;;;9.07;5.18;;;;;;;;;;6277369;22;20041;-89
2023/08/30 01:09:48;;;;;;;9.80;5.70;;;;;;;;;;6276540;22;19999;-89
2023/08/30 01:12:18;;;;;;;7.43;5.68;;;;;;;;;;6276076;22;20003;-90
2023/08/30 01:14:57;;;;;;;7.28;5.82;;;;;;;;;;6276188;22;20083;-90
2023/08/30 01:17:24;;;;;;;8.80;6.00;;;;;;;;;;6276907;22;20003;-90
2023/08/30 01:20:08;;;;;;;7.47;6.43;;;;;;;;;;6276316;22;20014;-89
2023/08/30 01:22:52;;;;;;;12.65;7.38;;;;;;;;;;6275534;22;20000;-89
2023/08/30 01:25:37;;;;;;;8.73;6.32;;;;;;;;;;6278640;22;20030;-90
2023/08/30 01:28:21;;;;;;;13.27;6.93;;;;;;;;;;6278231;22;20091;-90
2023/08/30 01:30:48;;;;;;;12.38;6.43;;;;;;;;;;6253356;22;20008;-89
2023/08/30 01:33:18;;;;;;;9.05;6.75;;;;;;;;;;6277923;22;19999;-89
2023/08/30 01:35:45;;;;;;;7.65;5.97;;;;;;;;;;6278211;22;20075;-90
2023/08/30 01:38:11;;;;;;;8.23;6.43;;;;;;;;;;6279903;22;20460;-90
2023/08/30 01:40:40;;;;;;;8.73;6.80;;;;;;;;;;6278978;22;20018;-90
2023/08/30 01:43:07;;;;;;;8.27;6.60;;;;;;;;;;6279055;22;20429;-90
2023/08/30 01:48:37;;;;;;;9.73;6.85;;;;;;;;;;6279876;22;20353;-89
2023/08/30 01:51:04;;;;;;;8.88;6.70;;;;;;;;;;6278217;22;20065;-89
2023/08/30 01:53:31;;;;;;;14.27;6.97;;;;;;;;;;6277616;22;20208;-90
2023/08/30 01:55:57;;;;;;;9.23;6.85;;;;;;;;;;6277838;22;20000;-90
2023/08/30 01:58:23;;;;;;;10.55;7.30;;;;;;;;;;6277867;22;20010;-90
2023/08/30 02:00:49;;;;;;;11.88;6.85;;;;;;;;;;6277781;22;19996;-90
2023/08/30 02:03:15;;;;;;;9.85;7.05;;;;;;;;;;6278079;22;20303;-90
2023/08/30 02:06:01;;;;;;;14.93;7.53;;;;;;;;;;6277751;22;20437;-90
2023/08/30 02:08:33;;;;;;;9.35;6.97;;;;;;;;;;6277800;22;20456;-89
2023/08/30 02:11:02;;;;;;;12.50;7.97;;;;;;;;;;6277700;22;20031;-90
2023/08/30 02:13:29;;;;;;;9.77;7.10;;;;;;;;;;6278113;22;20003;-90
2023/08/30 02:15:59;;;;;;;12.82;8.55;;;;;;;;;;6277745;22;20027;-89
2023/08/30 02:18:26;;;;;;;13.20;7.33;;;;;;;;;;6278155;22;20014;-90
2023/08/30 02:20:52;;;;;;;7.97;6.20;;;;;;;;;;6277842;22;20393;-90
2023/08/30 02:23:18;;;;;;;7.78;6.05;;;;;;;;;;6279758;22;20030;-90
2023/08/30 02:25:44;;;;;;;9.23;6.85;;;;;;;;;;6278448;22;20004;-90
2023/08/30 02:28:10;;;;;;;10.82;6.18;;;;;;;;;;6279394;22;20008;-90
2023/08/30 02:30:36;;;;;;;7.35;5.88;;;;;;;;;;6277828;22;20081;-91
2023/08/30 02:33:02;;;;;;;8.98;6.18;;;;;;;;;;6277979;22;20369;-90
2023/08/30 02:35:28;;;;;;;9.75;6.88;;;;;;;;;;6276903;22;20043;-90
2023/08/30 02:37:54;;;;;;;9.68;7.32;;;;;;;;;;6277481;22;20086;-90
2023/08/30 02:40:20;;;;;;;8.38;6.60;;;;;;;;;;6278708;22;19992;-90
2023/08/30 02:42:46;;;;;;;9.68;6.35;;;;;;;;;;6277823;22;20452;-90
2023/08/30 02:45:12;;;;;;;9.25;6.88;;;;;;;;;;6277425;22;20000;-89
2023/08/30 02:47:38;;;;;;;8.50;6.47;;;;;;;;;;6277389;22;20424;-90
2023/08/30 02:50:04;;;;;;;13.35;7.28;;;;;;;;;;6277408;22;20007;-91
2023/08/30 02:52:30;;;;;;;9.95;6.55;;;;;;;;;;6279116;22;20026;-91
2023/08/30 02:54:56;;;;;;;10.60;6.20;;;;;;;;;;6277313;22;20012;-91
2023/08/30 02:57:22;;;;;;;6.97;5.88;;;;;;;;;;6277223;22;20087;-90
2023/08/30 02:59:48;;;;;;;11.55;6.07;;;;;;;;;;6277298;22;20000;-90
2023/08/30 03:02:14;;;;;;;11.65;6.32;;;;;;;;;;6277308;22;20057;-90
2023/08/30 03:04:40;;;;;;;7.97;6.18;;;;;;;;;;6279060;22;20000;-91
2023/08/30 03:07:06;;;;;;;6.60;5.63;;;;;;;;;;6277242;22;20494;-90
2023/08/30 03:09:32;;;;;;;7.85;5.53;;;;;;;;;;6278556;22;20006;-89
2023/08/30 03:11:57;;;;;;;8.65;5.78;;;;;;;;;;6277260;22;20611;-90
2023/08/30 03:14:23;;;;;;;7.72;6.00;;;;;;;;;;6277380;22;20012;-91
2023/08/30 03:16:49;;;;;;;10.20;5.88;;;;;;;;;;6277039;22;20010;-90
2023/08/30 03:19:17;;;;;;;9.18;6.70;;;;;;;;;;6278423;22;20004;-91
2023/08/30 03:21:43;;;;;;;13.95;6.45;;;;;;;;;;6277096;22;19999;-91
2023/08/30 03:24:10;;;;;;;7.90;6.47;;;;;;;;;;6277710;22;20429;-91
2023/08/30 03:26:35;;;;;;;16.63;6.18;;;;;;;;;;6278843;22;20050;-91
2023/08/30 03:29:02;;;;;;;9.25;6.53;;;;;;;;;;6277223;22;20008;-91
2023/08/30 03:31:27;;;;;;;9.95;6.55;;;;;;;;;;6277300;22;20027;-91
2023/08/30 03:33:53;;;;;;;8.25;6.32;;;;;;;;;;6277461;22;20007;-92
2023/08/30 03:36:19;;;;;;;10.90;7.85;;;;;;;;;;6276869;22;20011;-91
2023/08/30 03:38:46;;;;;;;16.05;7.50;;;;;;;;;;6276948;22;20010;-91
2023/08/30 03:41:12;;;;;;;15.18;7.43;;;;;;;;;;6276999;22;20004;-91
2023/08/30 03:43:38;;;;;;;12.23;7.85;;;;;;;;;;6277141;22;20007;-91
2023/08/30 03:46:04;;;;;;;13.18;7.43;;;;;;;;;;6276914;22;20004;-91
2023/08/30 03:48:30;;;;;;;19.65;7.82;;;;;;;;;;6276810;22;20042;-91
2023/08/30 03:50:57;;;;;;;10.43;7.47;;;;;;;;;;6278084;22;20042;-91
2023/08/30 03:53:23;;;;;;;11.02;7.63;;;;;;;;;;6276639;22;20061;-91
2023/08/30 03:55:50;;;;;;;10.43;7.30;;;;;;;;;;6277101;22;20010;-90
2023/08/30 03:58:16;;;;;;;12.93;7.88;;;;;;;;;;6276887;22;20083;-91
2023/08/30 04:00:42;;;;;;;12.02;7.47;;;;;;;;;;6276608;22;20428;-91
2023/08/30 04:03:09;;;;;;;11.43;8.02;;;;;;;;;;6276682;22;20333;-91
2023/08/30 04:05:35;;;;;;;11.57;7.18;;;;;;;;;;6277197;22;20031;-91
2023/08/30 04:08:06;;;;;;;14.65;7.82;;;;;;;;;;6276263;22;20437;-87
2023/08/30 04:10:38;;;;;;;12.38;8.13;;;;;;;;;;6276708;22;20007;-92
2023/08/30 04:13:05;;;;;;;11.10;7.28;;;;;;;;;;6276635;22;20031;-91
2023/08/30 04:15:35;;;;;;;12.43;7.97;;;;;;;;;;6276863;22;20000;-91
2023/08/30 04:18:01;;;;;;;10.57;7.22;;;;;;;;;;6276602;22;20095;-91
2023/08/30 04:20:27;;;;;;;12.13;7.82;;;;;;;;;;6276647;22;20082;-91
2023/08/30 04:22:55;;;;;;;13.20;8.07;;;;;;;;;;6276573;22;20475;-91
2023/08/30 04:25:21;;;;;;;16.05;8.05;;;;;;;;;;6278485;22;20004;-91
2023/08/30 04:27:47;;;;;;;11.13;7.68;;;;;;;;;;6276809;22;20042;-90
2023/08/30 04:30:13;;;;;;;13.65;7.70;;;;;;;;;;6276665;22;20421;-91
2023/08/30 04:32:39;;;;;;;12.48;8.57;;;;;;;;;;6276716;22;20440;-91
2023/08/30 04:35:06;;;;;;;13.93;8.38;;;;;;;;;;6278002;22;20504;-91
2023/08/30 04:37:32;;;;;;;19.02;9.35;;;;;;;;;;6277536;22;20003;-91
2023/08/30 04:39:58;;;;;;;13.13;8.77;;;;;;;;;;6278406;22;20029;-91
2023/08/30 04:42:24;;;;;;;10.98;8.02;;;;;;;;;;6276936;22;20010;-91
2023/08/30 04:44:51;;;;;;;19.08;10.15;;;;;;;;;;6278209;22;20379;-91
2023/08/30 04:47:17;;;;;;;15.18;9.38;;;;;;;;;;6278148;22;20074;-91
2023/08/30 04:49:43;;;;;;;15.25;9.82;;;;;;;;;;6276155;22;20092;-90
2023/08/30 04:52:09;;;;;;;18.98;9.45;;;;;;;;;;6276234;22;20007;-91
2023/08/30 04:54:35;;;;;;;18.92;10.15;;;;;;;;;;6276276;22;20015;-91
2023/08/30 04:57:01;;;;;;;19.25;10.85;;;;;;;;;;6276386;22;20007;-91
2023/08/30 04:59:27;;;;;;;17.45;9.73;;;;;;;;;;6277537;22;19999;-91
2023/08/30 05:01:53;;;;;;;18.20;10.30;;;;;;;;;;6276270;22;20003;-90
2023/08/30 05:04:19;;;;;;;19.77;10.13;;;;;;;;;;6276396;22;20004;-91
2023/08/30 05:06:45;;;;;;;22.85;12.15;;;;;;;;;;6277976;22;20011;-91
2023/08/30 05:09:11;;;;;;;21.08;11.48;;;;;;;;;;6276163;22;20004;-91
2023/08/30 05:11:37;;;;;;;22.20;11.38;;;;;;;;;;6276272;22;20381;-91
2023/08/30 05:14:03;;;;;;;22.00;12.10;;;;;;;;;;6276069;22;20008;-91
2023/08/30 05:16:29;;;;;;;21.15;11.27;;;;;;;;;;6277915;22;20003;-91
2023/08/30 05:18:55;;;;;;;22.83;11.88;;;;;;;;;;6276221;22;19999;-91
2023/08/30 05:21:21;;;;;;;20.67;11.77;;;;;;;;;;6276185;22;20035;-91
2023/08/30 05:23:47;;;;;;;21.73;11.35;;;;;;;;;;6276509;22;20303;-91
2023/08/30 05:26:13;;;;;;;22.33;12.13;;;;;;;;;;6277981;22;20490;-91
2023/08/30 05:28:39;;;;;;;19.63;10.88;;;;;;;;;;6276872;22;20008;-91
2023/08/30 05:31:05;;;;;;;21.30;11.48;;;;;;;;;;6276277;22;20090;-91
2023/08/30 05:33:32;;;;;;;20.90;11.25;;;;;;;;;;6277620;22;20010;-91
2023/08/30 05:35:58;;;;;;;17.58;10.57;;;;;;;;;;6276087;22;20007;-90
2023/08/30 05:38:24;;;;;;;15.18;9.38;;;;;;;;;;6276357;22;20010;-91
2023/08/30 05:40:50;;;;;;;14.30;9.15;;;;;;;;;;6276165;22;20000;-91
2023/08/30 05:43:16;;;;;;;15.13;9.65;;;;;;;;;;6275998;22;20004;-92
2023/08/30 05:45:42;;;;;;;15.05;9.10;;;;;;;;;;6276026;22;20000;-92
2023/08/30 05:48:08;;;;;;;14.35;9.23;;;;;;;;;;6277795;22;19999;-92
2023/08/30 05:50:34;;;;;;;18.83;9.98;;;;;;;;;;6277424;22;20010;-91
2023/08/30 05:53:00;;;;;;;18.55;10.70;;;;;;;;;;6276051;22;20402;-92
2023/08/30 05:55:26;;;;;;;12.95;8.48;;;;;;;;;;6276034;22;20063;-92
2023/08/30 05:57:52;;;;;;;15.70;8.85;;;;;;;;;;6277780;22;20027;-92
2023/08/30 06:00:18;;;;;;;14.73;9.40;;;;;;;;;;6276148;22;20000;-92
2023/08/30 06:02:44;;;;;;;15.75;8.10;;;;;;;;;;6275922;22;20087;-92
2023/08/30 06:05:10;;;;;;;14.43;9.07;;;;;;;;;;6276033;22;20000;-91
2023/08/30 06:07:36;;;;;;;12.75;8.77;;;;;;;;;;6277821;22;20498;-93
2023/08/30 06:10:02;;;;;;;15.07;9.57;;;;;;;;;;6278366;22;20042;-92
2023/08/30 06:12:29;;;;;;;16.88;10.20;;;;;;;;;;6277857;22;20007;-92
2023/08/30 06:14:55;;;;;;;23.27;8.88;;;;;;;;;;6277686;22;20008;-92
2023/08/30 06:17:21;;;;;;;14.23;9.38;;;;;;;;;;6278049;22;20086;-91
2023/08/30 06:19:47;;;;;;;16.02;9.10;;;;;;;;;;6279992;22;20085;-91
2023/08/30 06:22:14;;;;;;;13.32;8.52;;;;;;;;;;6277805;22;20082;-91
2023/08/30 06:24:40;;;;;;;16.38;9.75;;;;;;;;;;6277654;22;20010;-91
2023/08/30 06:27:06;;;;;;;14.43;9.18;;;;;;;;;;6277524;22;20000;-93
2023/08/30 06:29:32;;;;;;;14.48;10.20;;;;;;;;;;6278088;22;20000;-91
2023/08/30 06:31:58;;;;;;;15.98;10.38;;;;;;;;;;6277530;22;20034;-92
2023/08/30 06:34:24;;;;;;;15.90;9.70;;;;;;;;;;6277459;22;20423;-92
2023/08/30 06:36:50;;;;;;;18.83;10.43;;;;;;;;;;6277640;22;20015;-91
2023/08/30 06:39:18;;;;;;;14.27;9.25;;;;;;;;;;6279301;22;19996;-92
2023/08/30 06:41:44;;;;;;;13.85;9.75;;;;;;;;;;6279064;22;20413;-91
2023/08/30 06:44:10;;;;;;;13.10;9.07;;;;;;;;;;6278848;22;20007;-91
2023/08/30 06:46:37;;;;;;;14.27;9.90;;;;;;;;;;6278016;22;20010;-92
2023/08/30 06:49:03;;;;;;;13.90;8.57;;;;;;;;;;6279997;22;20007;-91
2023/08/30 06:51:29;;;;;;;13.85;8.60;;;;;;;;;;6277867;22;20007;-92
2023/08/30 06:54:00;;;;;;;12.38;8.93;;;;;;;;;;6277435;22;20433;-92
2023/08/30 06:56:26;;;;;;;14.45;8.77;;;;;;;;;;6277620;22;20011;-92
2023/08/30 06:58:55;;;;;;;12.10;8.38;;;;;;;;;;6277451;22;20000;-92
2023/08/30 07:01:21;;;;;;;13.68;8.75;;;;;;;;;;6277477;22;20015;-92
2023/08/30 07:03:47;;;;;;;13.23;8.68;;;;;;;;;;6277668;22;19999;-92
2023/08/30 07:06:13;;;;;;;12.57;8.25;;;;;;;;;;6277380;22;20003;-92
2023/08/30 07:08:39;;;;;;;15.63;8.02;;;;;;;;;;6277408;22;20010;-92
2023/08/30 07:11:05;;;;;;;12.13;8.00;;;;;;;;;;6277579;22;20011;-91
2023/08/30 07:13:31;;;;;;;12.55;8.13;;;;;;;;;;6277244;22;20011;-93
2023/08/30 07:15:57;;;;;;;11.32;7.78;;;;;;;;;;6278615;22;20088;-92
2023/08/30 07:18:23;;;;;;;16.17;7.88;;;;;;;;;;6277041;22;20003;-93
2023/08/30 07:20:49;;;;;;;11.70;7.75;;;;;;;;;;6277201;22;20000;-92
2023/08/30 07:23:15;;;;;;;11.88;8.23;;;;;;;;;;6277211;22;20378;-94
2023/08/30 07:25:41;;;;;;;14.55;9.02;;;;;;;;;;6277160;22;20002;-93
2023/08/30 07:28:07;;;;;;;15.35;8.68;;;;;;;;;;6278479;22;19996;-90
2023/08/30 07:30:34;;;;;;;14.15;8.57;;;;;;;;;;6277351;22;20011;-91
2023/08/30 07:33:00;;;;;;;14.90;8.82;;;;;;;;;;6277094;22;20054;-92
2023/08/30 07:35:27;;;;;;;17.05;9.60;;;;;;;;;;6277012;22;20016;-92
2023/08/30 07:37:53;;;;;;;13.23;9.50;;;;;;;;;;6278400;22;19996;-92
2023/08/30 07:40:20;;;;;;;14.93;8.88;;;;;;;;;;6278394;22;20000;-92
2023/08/30 07:42:46;;;;;;;14.20;9.25;;;;;;;;;;6277408;22;20004;-93
2023/08/30 07:45:13;;;;;;;17.25;9.63;;;;;;;;;;6277080;22;20010;-92
2023/08/30 07:47:39;;;;;;;15.77;9.30;;;;;;;;;;6277210;22;20341;-93
2023/08/30 07:50:05;;;;;;;16.73;10.50;;;;;;;;;;6276652;22;20012;-93
2023/08/30 07:52:31;;;;;;;16.73;11.57;;;;;;;;;;6277385;22;19999;-93
2023/08/30 07:54:57;;;;;;;14.38;10.25;;;;;;;;;;6276944;22;20475;-93
2023/08/30 07:57:23;;;;;;;15.38;8.82;;;;;;;;;;6278041;22;20003;-92
2023/08/30 07:59:49;;;;;;;13.98;10.05;;;;;;;;;;6276464;22;20004;-91
2023/08/30 08:02:15;;;;;;;16.05;8.82;;;;;;;;;;6277111;22;20428;-93
2023/08/30 08:04:41;;;;;;;15.25;8.95;;;;;;;;;;6277968;22;20000;-92
2023/08/30 08:07:07;;;;;;;15.65;9.23;;;;;;;;;;6276708;22;20006;-92
2023/08/30 08:09:33;;;;;;;17.17;9.38;;;;;;;;;;6277099;22;19995;-93
2023/08/30 08:11:59;;;;;;;14.77;9.55;;;;;;;;;;6277159;22;20057;-93
2023/08/30 08:14:25;;;;;;;13.20;8.65;;;;;;;;;;6276579;22;20030;-93
2023/08/30 08:16:52;;;;;;;14.35;9.38;;;;;;;;;;6276830;22;20069;-94
2023/08/30 08:19:18;;;;;;;13.02;9.07;;;;;;;;;;6279528;22;20004;-93
2023/08/30 08:21:44;;;;;;;10.82;7.15;;;;;;;;;;6278769;22;20010;-94
2023/08/30 08:24:09;;;;;;;13.38;7.68;;;;;;;;;;6276664;22;20011;-94
2023/08/30 08:26:35;;;;;;;11.98;7.32;;;;;;;;;;6277917;22;20413;-92
2023/08/30 08:29:02;;;;;;;10.98;7.13;;;;;;;;;;6278898;22;19996;-93
2023/08/30 08:31:28;;;;;;;13.50;8.13;;;;;;;;;;6277049;22;20080;-93
2023/08/30 08:34:08;;;;;;;14.18;7.80;;;;;;;;;;6278629;22;20414;-94
2023/08/30 08:36:34;;;;;;;12.00;7.03;;;;;;;;;;6276739;22;20311;-93
2023/08/30 08:39:00;;;;;;;11.55;6.63;;;;;;;;;;6276789;22;20421;-92
2023/08/30 08:41:31;;;;;;;11.82;7.10;;;;;;;;;;6279099;22;20006;-94
2023/08/30 08:43:57;;;;;;;11.25;7.20;;;;;;;;;;6281887;22;20417;-95
2023/08/30 08:46:24;;;;;;;9.90;6.47;;;;;;;;;;6279672;22;20330;-94
2023/08/30 08:48:51;;;;;;;17.10;7.22;;;;;;;;;;6277967;22;20019;-92
2023/08/30 08:51:17;;;;;;;10.77;6.47;;;;;;;;;;6279221;22;20004;-95
2023/08/30 08:53:43;;;;;;;10.48;6.72;;;;;;;;;;6280567;22;20485;-94
2023/08/30 08:56:09;;;;;;;11.02;7.07;;;;;;;;;;6283299;22;20045;-93
2023/08/30 08:58:40;;;;;;;13.43;6.72;;;;;;;;;;6282381;22;20054;-91
2023/08/30 09:01:06;;;;;;;10.15;6.20;;;;;;;;;;6278679;22;20061;-96
2023/08/30 09:03:34;;;;;;;11.00;7.03;;;;;;;;;;6282495;22;20000;-96
2023/08/30 09:06:01;;;;;;;11.13;6.90;;;;;;;;;;6283748;22;20023;-95
2023/08/30 09:08:27;;;;;;;8.85;6.32;;;;;;;;;;6278050;22;20031;-92
2023/08/30 09:10:53;;;;;;;14.88;6.30;;;;;;;;;;6282278;22;20003;-94
2023/08/30 09:13:22;;;;;;;9.55;6.40;;;;;;;;;;6279634;22;20004;-93
2023/08/30 09:15:49;;;;;;;7.85;5.50;;;;;;;;;;6278828;22;20007;-91
2023/08/30 09:18:16;;;;;;;7.55;5.82;;;;;;;;;;6281464;22;20008;-91
2023/08/30 09:20:45;;;;;;;12.60;7.60;;;;;;;;;;6258061;22;20016;-96
2023/08/30 09:23:20;;;;;;;12.75;7.13;;;;;;;;;;6281983;22;20007;-90
2023/08/30 09:25:47;;;;;;;15.73;6.35;;;;;;;;;;6279996;22;20030;-93
2023/08/30 09:28:13;;;;;;;11.40;6.45;;;;;;;;;;6280552;22;20041;-95
2023/08/30 09:30:40;;;;;;;13.15;6.30;;;;;;;;;;6280309;22;20011;-94
2023/08/30 09:33:06;;;;;;;7.43;5.55;;;;;;;;;;6278327;22;20008;-92
2023/08/30 09:35:34;;;;;;;9.23;5.82;;;;;;;;;;6279241;22;20004;-94
2023/08/30 09:38:00;;;;;;;10.85;6.63;;;;;;;;;;6283427;22;20000;-92
2023/08/30 09:40:26;;;;;;;9.05;5.40;;;;;;;;;;6279553;22;20000;-94
2023/08/30 09:42:52;;;;;;;8.18;5.88;;;;;;;;;;6278277;22;20008;-94
2023/08/30 09:45:19;;;;;;;11.55;6.03;;;;;;;;;;6279204;22;20008;-95
2023/08/30 09:47:51;;;;;;;9.63;6.05;;;;;;;;;;6281772;22;19999;-93
2023/08/30 09:50:18;;;;;;;12.00;5.82;;;;;;;;;;6279530;22;20015;-92
2023/08/30 09:52:51;;;;;;;8.50;5.07;;;;;;;;;;6287260;22;20000;-96
2023/08/30 09:55:19;;;;;;;7.80;5.35;;;;;;;;;;6283781;22;20014;-93
2023/08/30 09:57:45;;;;;;;9.27;6.40;;;;;;;;;;6259013;22;20054;-94
2023/08/30 10:00:14;;;;;;;9.43;7.00;;;;;;;;;;6279962;22;20018;-94
2023/08/30 10:02:43;;;;;;;11.38;6.20;;;;;;;;;;6280096;22;20450;-94
2023/08/30 10:05:17;;;;;;;10.55;6.70;;;;;;;;;;6282516;22;19996;-95
2023/08/30 10:07:44;;;;;;;9.27;6.40;;;;;;;;;;6280016;22;20039;-93
2023/08/30 10:10:14;;;;;;;9.35;6.13;;;;;;;;;;6280005;22;20062;-93
2023/08/30 10:12:41;;;;;;;10.40;6.10;;;;;;;;;;6224323;23;20410;-92
2023/08/30 10:15:07;;;;;;;10.32;6.30;;;;;;;;;;6249402;23;20012;-96
2023/08/30 10:17:37;;;;;;;8.43;5.65;;;;;;;;;;6250935;23;20004;-96
2023/08/30 10:20:06;;;;;;;9.55;6.43;;;;;;;;;;6248218;23;20069;-96
2023/08/30 10:22:37;;;;;;;8.50;6.22;;;;;;;;;;6252023;23;20026;-95
2023/08/30 10:25:07;;;;;;;7.50;4.50;;;;;;;;;;6250921;23;20012;-95
2023/08/30 10:27:34;;;;;;;9.47;5.70;;;;;;;;;;6249565;23;20347;-96
2023/08/30 10:30:03;;;;;;;7.85;5.07;;;;;;;;;;6248616;23;20350;-94
2023/08/30 10:32:30;;;;;;;9.50;4.60;;;;;;;;;;6247588;23;20001;-93
2023/08/30 10:35:03;;;;;;;8.23;4.82;;;;;;;;;;6247327;23;20042;-95
2023/08/30 10:37:32;;;;;;;5.53;3.72;;;;;;;;;;6247443;23;20000;-94
2023/08/30 10:40:03;;;;;;;6.45;4.15;;;;;;;;;;6249385;23;20000;-91
2023/08/30 10:42:29;;;;;;;11.95;4.50;;;;;;;;;;6249812;23;20032;-95
2023/08/30 10:44:59;;;;;;;5.88;4.15;;;;;;;;;;6247692;23;20087;-92
2023/08/30 10:47:28;;;;;;;6.05;4.10;;;;;;;;;;6247320;23;20011;-90
2023/08/30 10:49:56;;;;;;;6.72;4.05;;;;;;;;;;6260077;22;20016;-93
2023/08/30 10:52:23;;;;;;;5.80;3.60;;;;;;;;;;6278934;22;20008;-93
2023/08/30 10:54:50;;;;;;;5.82;3.35;;;;;;;;;;6277593;22;20011;-95
2023/08/30 10:57:21;;;;;;;6.47;3.58;;;;;;;;;;6279417;22;20004;-94
2023/08/30 11:00:17;;;;;;;6.65;3.83;;;;;;;;;;6278542;22;20400;-93
2023/08/30 11:02:47;;;;;;;3.72;2.03;;;;;;;;;;6278049;22;20000;-90
2023/08/30 11:05:23;;;;;;;6.03;2.92;;;;;;;;;;6279124;22;20075;-92
2023/08/30 11:07:51;;;;;;;5.63;2.85;;;;;;;;;;6205064;22;20064;-95
2023/08/30 11:10:19;;;;;;;4.68;2.72;;;;;;;;;;6277453;22;20006;-91
2023/08/30 11:15:57;;;;;;;3.63;2.90;;;;;;;;;;6247252;23;20362;-92
2023/08/30 11:18:31;;;;;;;6.00;2.50;;;;;;;;;;6221281;23;20011;-91
2023/08/30 11:21:01;;;;;;;2.28;1.80;;;;;;;;;;6220731;23;20011;-89
2023/08/30 11:23:32;;;;;;;4.75;3.08;;;;;;;;;;6244955;23;20079;-90
2023/08/30 11:26:03;;;;;;;6.30;3.05;;;;;;;;;;6220839;23;20487;-91
2023/08/30 11:28:30;;;;;;;6.00;2.88;;;;;;;;;;6246124;23;20011;-93
2023/08/30 11:31:05;;;;;;;4.55;2.35;;;;;;;;;;6220111;23;20039;-91
2023/08/30 11:33:33;;;;;;;4.18;2.50;;;;;;;;;;6217249;23;20342;-90
2023/08/30 11:36:12;;;;;;;3.22;2.38;;;;;;;;;;6245163;23;20000;-89
2023/08/30 11:38:58;;;;;;;3.58;2.67;;;;;;;;;;6203511;23;20023;-88
2023/08/30 11:41:26;;;;;;;15.77;2.55;;;;;;;;;;6220010;23;20018;-91
2023/08/30 11:43:52;;;;;;;6.60;1.80;;;;;;;;;;6194901;23;20046;-90
2023/08/30 11:46:18;;;;;;;2.08;1.80;;;;;;;;;;6221451;23;20004;-87
2023/08/30 11:48:45;;;;;;;3.33;2.05;;;;;;;;;;6221172;23;20062;-93
2023/08/30 11:51:13;;;;;;;2.35;1.92;;;;;;;;;;6271838;22;20041;-92
2023/08/30 11:53:40;;;;;;;4.25;1.58;;;;;;;;;;6279579;22;20043;-94
2023/08/30 11:56:07;;;;;;;2.03;1.42;;;;;;;;;;6278571;22;20000;-91
2023/08/30 11:58:34;;;;;;;5.00;1.60;;;;;;;;;;6277801;22;20039;-91
2023/08/30 12:01:00;;;;;;;3.95;1.50;;;;;;;;;;6277251;22;20004;-92
2023/08/30 12:03:30;;;;;;;2.60;2.15;;;;;;;;;;6276934;22;20057;-93
2023/08/30 12:05:56;;;;;;;4.80;1.75;;;;;;;;;;6277743;22;20086;-91
2023/08/30 12:08:26;;;;;;;3.90;1.85;;;;;;;;;;6277554;22;20008;-91
2023/08/30 12:10:52;;;;;;;;;;;;;;;;;;6279511;22;20066;-93
2023/08/30 12:13:25;;;;;;;2.13;1.80;;;;;;;;;;6281455;22;19921;-93
2023/08/30 12:15:51;;;;;;;3.08;1.90;;;;;;;;;;6278489;22;20077;-92
2023/08/30 12:18:21;;;;;;;3.45;1.80;;;;;;;;;;6278517;22;20003;-96
2023/08/30 12:20:53;;;;;;;2.03;1.45;;;;;;;;;;6279679;22;20367;-93
2023/08/30 12:23:20;;;;;;;5.05;1.70;;;;;;;;;;6278505;22;20087;-94
2023/08/30 12:25:56;;;;;;;1.52;1.42;;;;;;;;;;6280953;22;19999;-91
2023/08/30 12:28:22;;;;;;;2.15;1.52;;;;;;;;;;6278401;22;20101;-94
2023/08/30 12:30:48;;;;;;;5.10;1.60;;;;;;;;;;6277293;22;20425;-90
2023/08/30 12:33:17;;;;;;;4.75;1.67;;;;;;;;;;6276721;22;20018;-96
2023/08/30 12:35:43;;;;;;;1.50;1.40;;;;;;;;;;6278070;22;20008;-93
2023/08/30 12:38:11;;;;;;;1.60;1.00;;;;;;;;;;6277294;22;20056;-95
2023/08/30 12:40:37;;;;;;;1.83;1.25;;;;;;;;;;6276694;22;20004;-95
2023/08/30 12:43:04;;;;;;;2.50;1.25;;;;;;;;;;6276291;22;20000;-94
2023/08/30 12:45:32;;;;;;;2.28;1.38;;;;;;;;;;6281405;22;19996;-95
2023/08/30 12:47:58;;;;;;;1.38;1.23;;;;;;;;;;6278945;22;20456;-94
2023/08/30 12:50:26;;;;;;;1.48;1.35;;;;;;;;;;6279155;22;20044;-95
2023/08/30 12:52:52;;;;;;;2.15;1.35;;;;;;;;;;6278389;22;20004;-92
2023/08/30 12:55:19;;;;;;;1.70;1.30;;;;;;;;;;6276295;22;20004;-93
2023/08/30 12:57:46;;;;;;;1.70;1.20;;;;;;;;;;6277790;22;20057;-93
2023/08/30 13:00:12;;;;;;;1.20;1.10;;;;;;;;;;6276328;22;20018;-93
2023/08/30 13:02:39;;;;;;;1.48;1.38;;;;;;;;;;6276404;22;20054;-95
2023/08/30 13:05:05;;;;;;;6.85;1.50;;;;;;;;;;6277513;22;20004;-94
2023/08/30 13:07:31;;;;;;;1.25;1.10;;;;;;;;;;6277618;22;20011;-92
2023/08/30 13:09:57;;;;;;;1.60;1.40;;;;;;;;;;6277219;22;20008;-90
2023/08/30 13:12:24;;;;;;;2.65;1.50;;;;;;;;;;6276178;22;20004;-93
2023/08/30 13:14:50;;;;;;;1.98;1.35;;;;;;;;;;6277863;22;20008;-93
2023/08/30 13:17:18;;;;;;;2.45;1.20;;;;;;;;;;6276299;22;20372;-96
2023/08/30 13:19:44;;;;;;;2.45;1.48;;;;;;;;;;6280058;22;20011;-89
2023/08/30 13:22:10;;;;;;;3.47;1.50;;;;;;;;;;6278229;22;20042;-93
2023/08/30 13:24:37;;;;;;;1.60;1.42;;;;;;;;;;6281083;22;20007;-95
2023/08/30 13:27:03;;;;;;;1.80;1.25;;;;;;;;;;6283768;22;20015;-96
2023/08/30 13:29:29;;;;;;;1.50;1.38;;;;;;;;;;6283322;22;19988;-90
2023/08/30 13:31:56;;;;;;;3.03;1.30;;;;;;;;;;6280001;22;20000;-90
2023/08/30 13:34:22;;;;;;;2.63;1.25;;;;;;;;;;6278103;22;20061;-93
2023/08/30 13:36:48;;;;;;;7.55;1.50;;;;;;;;;;6280641;22;20003;-91
2023/08/30 13:39:14;;;;;;;1.58;1.13;;;;;;;;;;6279835;22;20003;-91
2023/08/30 13:41:41;;;;;;;3.03;1.67;;;;;;;;;;6278652;22;20298;-90
2023/08/30 13:44:08;;;;;;;1.73;1.27;;;;;;;;;;6279446;22;20065;-94
2023/08/30 13:46:34;;;;;;;2.20;1.52;;;;;;;;;;6280609;22;20004;-95
2023/08/30 13:49:01;;;;;;;2.15;1.25;;;;;;;;;;6279506;22;20012;-93
2023/08/30 13:51:27;;;;;;;1.92;1.30;;;;;;;;;;6278143;22;20473;-95
2023/08/30 13:53:53;;;;;;;1.55;1.20;;;;;;;;;;6278826;22;20019;-92
2023/08/30 13:56:20;;;;;;;1.48;1.08;;;;;;;;;;6278276;22;19999;-91
2023/08/30 13:58:46;;;;;;;3.55;1.80;;;;;;;;;;6277647;22;20011;-92
2023/08/30 14:01:12;;;;;;;1.60;1.13;;;;;;;;;;6277937;22;20086;-93
2023/08/30 14:03:38;;;;;;;1.77;1.45;;;;;;;;;;6279279;22;20061;-93
2023/08/30 14:06:04;;;;;;;1.65;1.25;;;;;;;;;;6277532;22;19999;-92
2023/08/30 14:08:31;;;;;;;1.63;1.20;;;;;;;;;;6277379;22;20007;-96
2023/08/30 14:10:57;;;;;;;2.08;1.40;;;;;;;;;;6277505;22;20325;-91
2023/08/30 14:13:23;;;;;;;1.65;1.40;;;;;;;;;;6277827;22;19996;-93
2023/08/30 14:15:49;;;;;;;2.40;1.63;;;;;;;;;;6278727;22;20012;-91
2023/08/30 14:18:16;;;;;;;3.95;1.60;;;;;;;;;;6277389;22;20031;-91
2023/08/30 14:20:42;;;;;;;2.78;1.70;;;;;;;;;;6278807;22;20031;-91
2023/08/30 14:23:08;;;;;;;3.63;1.58;;;;;;;;;;6277291;22;20007;-88
2023/08/30 14:25:34;;;;;;;2.90;1.45;;;;;;;;;;6277428;22;19999;-93
2023/08/30 14:28:00;;;;;;;1.95;1.33;;;;;;;;;;6277574;22;20010;-91
2023/08/30 14:30:27;;;;;;;2.15;1.48;;;;;;;;;;6276388;22;20008;-90
2023/08/30 14:32:53;;;;;;;1.85;1.70;;;;;;;;;;6277464;22;19999;-87
2023/08/30 14:35:24;;;;;;;3.50;1.50;;;;;;;;;;6277117;22;20506;-89
2023/08/30 14:37:50;;;;;;;1.27;1.10;;;;;;;;;;6276833;22;20444;-89
2023/08/30 14:40:16;;;;;;;2.55;1.05;;;;;;;;;;6276797;22;20023;-90
2023/08/30 14:42:42;;;;;;;3.88;1.40;;;;;;;;;;6278797;22;20042;-88